createdAt,value
2017-11-14T00:02:32.953Z,15.23
2017-11-14T00:05:03.234Z,2.27
2017-11-14T00:07:34.512Z,6.20
2017-11-14T00:10:05.434Z,2.37
2017-11-14T00:12:36.681Z,7.57
2017-11-14T00:15:08.822Z,4.30
2017-11-14T00:17:41.660Z,3.77
2017-11-14T00:20:13.235Z,7.43
2017-11-14T00:22:44.430Z,3.23
2017-11-14T00:25:14.623Z,3.00
2017-11-14T00:27:46.675Z,4.07
2017-11-14T00:30:26.859Z,4.47
2017-11-14T00:32:59.638Z,3.77
2017-11-14T00:35:32.839Z,1.90
2017-11-14T00:38:04.306Z,1.77
2017-11-14T00:40:35.208Z,2.07
2017-11-14T00:43:05.655Z,2.70
2017-11-14T00:45:36.107Z,5.73
2017-11-14T00:48:06.396Z,1.60
2017-11-14T00:50:37.542Z,4.63
2017-11-14T00:53:08.687Z,5.17
2017-11-14T00:55:39.828Z,2.70
2017-11-14T00:58:12.232Z,4.30
2017-11-14T01:00:43.942Z,5.33
2017-11-14T01:03:15.072Z,4.60
2017-11-14T01:05:45.831Z,2.97
2017-11-14T01:08:16.655Z,6.00
2017-11-14T01:10:48.015Z,3.00
2017-11-14T01:13:18.826Z,2.20
2017-11-14T01:15:49.598Z,7.40
2017-11-14T01:18:19.914Z,6.70
2017-11-14T01:20:50.825Z,3.53
2017-11-14T01:23:27.207Z,4.87
2017-11-14T01:25:57.522Z,3.60
2017-11-14T01:28:28.649Z,6.30
2017-11-14T01:32:31.950Z,6.30
2017-11-14T01:35:03.921Z,3.30
2017-11-14T01:37:34.775Z,9.33
2017-11-14T01:40:05.093Z,9.97
2017-11-14T01:42:35.353Z,6.33
2017-11-14T01:45:06.845Z,2.93
2017-11-14T01:47:37.504Z,6.43
2017-11-14T01:50:08.566Z,7.57
2017-11-14T01:59:25.909Z,2.17
2017-11-14T02:01:56.142Z,6.53
2017-11-14T02:04:27.581Z,3.13
2017-11-14T02:06:58.906Z,2.53
2017-11-14T02:09:29.666Z,7.70
2017-11-14T02:12:00.137Z,3.50
2017-11-14T02:14:30.930Z,2.83
2017-11-14T02:17:02.480Z,4.40
2017-11-14T02:19:33.614Z,3.33
2017-11-14T02:22:04.189Z,4.27
2017-11-14T02:24:35.202Z,5.23
2017-11-14T02:27:09.961Z,3.70
2017-11-14T02:29:40.500Z,4.00
2017-11-14T02:32:11.287Z,1.90
2017-11-14T02:34:52.098Z,2.80
2017-11-14T02:37:24.726Z,2.73
2017-11-14T02:39:55.870Z,3.30
2017-11-14T02:42:26.508Z,2.70
2017-11-14T02:44:58.137Z,9.80
2017-11-14T02:47:28.674Z,4.50
2017-11-14T02:49:59.305Z,6.10
2017-11-14T02:52:29.893Z,2.30
2017-11-14T02:55:00.598Z,2.70
2017-11-14T02:57:30.920Z,4.60
2017-11-14T03:00:01.703Z,2.73
2017-11-14T03:02:32.132Z,1.97
2017-11-14T03:05:03.794Z,3.83
2017-11-14T03:07:34.767Z,3.00
2017-11-14T03:10:05.336Z,4.73
2017-11-14T03:12:36.012Z,7.90
2017-11-14T03:15:07.247Z,2.23
2017-11-14T03:17:38.064Z,4.87
2017-11-14T03:20:08.680Z,4.70
2017-11-14T03:22:40.408Z,2.27
2017-11-14T03:25:11.214Z,13.33
2017-11-14T03:27:41.337Z,4.40
2017-11-14T03:30:12.078Z,4.93
2017-11-14T03:32:42.683Z,3.97
2017-11-14T03:35:13.843Z,5.13
2017-11-14T03:37:44.335Z,4.20
2017-11-14T03:40:14.863Z,4.13
2017-11-14T03:42:46.532Z,3.63
2017-11-14T03:45:18.693Z,3.57
2017-11-14T03:47:49.176Z,2.83
2017-11-14T03:50:19.469Z,3.53
2017-11-14T03:52:53.650Z,4.37
2017-11-14T03:55:24.414Z,1.57
2017-11-14T03:57:54.939Z,4.00
2017-11-14T04:00:25.569Z,4.60
2017-11-14T04:02:56.209Z,3.70
2017-11-14T04:05:26.552Z,4.63
2017-11-14T04:07:56.742Z,3.53
2017-11-14T04:10:28.326Z,4.20
2017-11-14T04:12:58.787Z,3.17
2017-11-14T04:15:29.442Z,8.10
2017-11-14T04:18:01.022Z,2.87
2017-11-14T04:20:31.757Z,3.07
2017-11-14T04:23:02.618Z,5.23
2017-11-14T04:25:33.331Z,4.57
2017-11-14T04:28:03.836Z,5.77
2017-11-14T04:30:35.308Z,1.60
2017-11-14T04:33:06.849Z,1.70
2017-11-14T04:35:38.086Z,3.87
2017-11-14T04:38:17.717Z,5.27
2017-11-14T04:40:50.727Z,8.43
2017-11-14T04:43:21.521Z,3.23
2017-11-14T04:45:52.150Z,4.47
2017-11-14T04:48:23.007Z,5.10
2017-11-14T04:50:53.916Z,2.40
2017-11-14T04:53:24.784Z,2.30
2017-11-14T04:55:56.002Z,4.30
2017-11-14T04:58:26.442Z,3.63
2017-11-14T05:00:57.102Z,4.50
2017-11-14T05:03:27.635Z,4.63
2017-11-14T05:06:00.312Z,8.53
2017-11-14T05:08:30.697Z,5.80
2017-11-14T05:11:02.227Z,7.10
2017-11-14T05:13:32.472Z,3.20
2017-11-14T05:16:03.638Z,6.20
2017-11-14T05:18:34.371Z,7.17
2017-11-14T05:21:04.710Z,7.53
2017-11-14T05:23:35.722Z,8.37
2017-11-14T05:26:06.784Z,9.00
2017-11-14T05:28:37.518Z,15.03
2017-11-14T05:31:07.571Z,9.00
2017-11-14T05:33:37.557Z,8.83
2017-11-14T05:36:07.853Z,5.20
2017-11-14T05:38:38.450Z,5.60
2017-11-14T05:41:08.843Z,6.70
2017-11-14T05:43:38.789Z,8.43
2017-11-14T05:46:09.181Z,6.30
2017-11-14T05:48:39.099Z,12.23
2017-11-14T05:51:09.640Z,4.80
2017-11-14T05:53:40.367Z,12.50
2017-11-14T05:56:10.778Z,4.80
2017-11-14T05:58:41.923Z,6.40
2017-11-14T06:01:12.168Z,2.60
2017-11-14T06:03:42.346Z,9.23
2017-11-14T06:06:13.131Z,6.23
2017-11-14T06:08:44.408Z,6.30
2017-11-14T06:11:15.218Z,7.10
2017-11-14T06:13:45.242Z,8.67
2017-11-14T06:16:15.383Z,12.37
2017-11-14T06:18:45.561Z,14.27
2017-11-14T06:21:17.083Z,8.70
2017-11-14T06:23:47.388Z,11.73
2017-11-14T06:26:18.235Z,7.63
2017-11-14T06:28:48.670Z,9.70
2017-11-14T06:31:19.460Z,12.77
2017-11-14T06:33:49.819Z,10.33
2017-11-14T06:36:20.761Z,8.93
2017-11-14T06:38:51.606Z,14.97
2017-11-14T06:41:30.585Z,9.00
2017-11-14T06:44:01.834Z,14.80
2017-11-14T06:46:32.351Z,12.43
2017-11-14T06:49:02.400Z,10.87
2017-11-14T06:51:32.523Z,8.53
2017-11-14T06:54:02.627Z,11.03
2017-11-14T06:56:33.039Z,12.13
2017-11-14T06:59:03.281Z,12.93
2017-11-14T07:01:33.551Z,10.87
2017-11-14T07:04:03.788Z,10.97
2017-11-14T07:06:35.247Z,15.00
2017-11-14T07:09:06.325Z,16.27
2017-11-14T07:11:36.426Z,12.20
2017-11-14T07:14:07.401Z,19.90
2017-11-14T07:16:37.436Z,15.57
2017-11-14T07:19:07.603Z,15.13
2017-11-14T07:21:38.382Z,16.40
2017-11-14T07:30:54.740Z,24.50
2017-11-14T07:33:25.427Z,19.37
2017-11-14T07:35:56.443Z,12.97
2017-11-14T07:38:27.469Z,15.63
2017-11-14T07:40:57.740Z,13.87
2017-11-14T07:43:35.606Z,17.70
2017-11-14T07:46:06.690Z,22.07
2017-11-14T07:48:37.224Z,16.40
2017-11-14T07:51:07.204Z,13.80
2017-11-14T07:53:38.541Z,15.63
2017-11-14T07:56:08.768Z,15.00
2017-11-14T07:58:40.169Z,17.90
2017-11-14T08:01:10.314Z,14.90
2017-11-14T08:03:40.581Z,19.93
2017-11-14T08:06:10.735Z,22.37
2017-11-14T08:08:40.914Z,14.83
2017-11-14T08:11:10.975Z,17.33
2017-11-14T08:13:41.485Z,24.03
2017-11-14T08:16:11.449Z,13.20
2017-11-14T08:18:41.690Z,22.47
2017-11-14T08:21:11.902Z,13.47
2017-11-14T08:23:41.860Z,16.40
2017-11-14T08:26:12.166Z,18.87
2017-11-14T08:28:42.122Z,12.37
2017-11-14T08:31:12.137Z,19.30
2017-11-14T08:33:42.327Z,16.33
2017-11-14T08:36:12.720Z,19.87
2017-11-14T08:38:42.847Z,13.83
2017-11-14T08:41:12.866Z,14.07
2017-11-14T08:43:42.943Z,14.17
2017-11-14T08:46:13.387Z,20.87
2017-11-14T08:48:43.494Z,12.73
2017-11-14T08:51:14.276Z,14.67
2017-11-14T08:53:44.440Z,16.97
2017-11-14T08:56:14.917Z,16.70
2017-11-14T08:58:45.089Z,13.80
2017-11-14T09:01:15.122Z,19.17
2017-11-14T09:03:45.276Z,12.60
2017-11-14T09:06:17.029Z,17.20
2017-11-14T09:08:47.495Z,18.63
2017-11-14T09:11:17.678Z,16.93
2017-11-14T09:13:47.953Z,18.43
2017-11-14T09:16:18.018Z,26.57
2017-11-14T09:18:48.287Z,15.77
2017-11-14T09:21:19.726Z,19.53
2017-11-14T09:23:50.076Z,16.80
2017-11-14T09:26:21.503Z,19.57
2017-11-14T09:28:51.883Z,14.40
2017-11-14T09:31:22.408Z,14.03
2017-11-14T09:33:54.886Z,16.33
2017-11-14T09:36:25.000Z,13.53
2017-11-14T09:38:55.423Z,18.10
2017-11-14T09:41:26.271Z,15.37
2017-11-14T09:43:56.968Z,13.30
2017-11-14T09:46:35.505Z,23.13
2017-11-14T09:49:08.418Z,14.73
2017-11-14T09:54:12.747Z,14.00
2017-11-14T09:56:43.576Z,18.23
2017-11-14T09:59:14.606Z,19.93
2017-11-14T10:01:44.938Z,18.30
2017-11-14T10:04:15.704Z,19.53
2017-11-14T10:06:46.076Z,22.53
2017-11-14T10:09:16.344Z,18.97
2017-11-14T10:11:46.641Z,17.83
2017-11-14T10:14:17.950Z,17.00
2017-11-14T10:16:48.252Z,20.60
2017-11-14T10:19:18.683Z,20.23
2017-11-14T10:21:49.674Z,26.23
2017-11-14T10:24:20.411Z,16.00
2017-11-14T10:26:50.872Z,20.77
2017-11-14T10:29:21.525Z,17.10
2017-11-14T10:31:57.434Z,22.10
2017-11-14T10:34:30.682Z,20.50
2017-11-14T10:37:01.756Z,20.30
2017-11-14T10:39:33.751Z,15.23
2017-11-14T10:42:06.285Z,17.83
2017-11-14T10:44:37.153Z,16.97
2017-11-14T10:47:08.295Z,19.80
2017-11-14T10:49:40.834Z,16.20
2017-11-14T10:52:11.314Z,16.50
2017-11-14T10:54:41.801Z,16.27
2017-11-14T10:57:12.627Z,18.83
2017-11-14T10:59:45.060Z,17.63
2017-11-14T11:02:16.358Z,21.13
2017-11-14T11:04:47.740Z,25.33
2017-11-14T11:07:18.385Z,18.63
2017-11-14T11:09:48.889Z,18.40
2017-11-14T11:12:20.635Z,20.33
2017-11-14T11:14:52.583Z,17.47
2017-11-14T11:17:24.448Z,18.37
2017-11-14T11:19:55.991Z,17.90
2017-11-14T11:22:27.040Z,19.43
2017-11-14T11:24:59.559Z,14.10
2017-11-14T11:27:31.025Z,21.97
2017-11-14T11:30:04.550Z,16.50
2017-11-14T11:32:35.085Z,19.30
2017-11-14T11:35:06.851Z,14.53
2017-11-14T11:37:38.833Z,15.27
2017-11-14T11:40:10.207Z,13.53
2017-11-14T11:42:42.493Z,14.17
2017-11-14T11:46:42.758Z,11.73
2017-11-14T11:49:13.433Z,11.03
2017-11-14T11:51:44.884Z,15.33
2017-11-14T11:54:15.838Z,12.00
2017-11-14T11:56:46.237Z,10.53
2017-11-14T11:59:17.926Z,14.50
2017-11-14T12:01:50.588Z,10.20
2017-11-14T12:04:22.636Z,11.63
2017-11-14T12:06:55.093Z,15.03
2017-11-14T12:09:25.713Z,10.70
2017-11-14T12:11:56.280Z,13.10
2017-11-14T12:14:27.905Z,8.90
2017-11-14T12:16:59.859Z,13.20
2017-11-14T12:19:32.137Z,11.60
2017-11-14T12:22:02.810Z,14.13
2017-11-14T12:24:34.825Z,11.60
2017-11-14T12:27:05.862Z,11.80
2017-11-14T12:29:36.915Z,20.00
2017-11-14T12:32:07.800Z,9.80
2017-11-14T12:34:39.143Z,9.90
2017-11-14T12:37:11.177Z,12.73
2017-11-14T12:39:43.142Z,13.27
2017-11-14T12:42:14.774Z,14.17
2017-11-14T12:44:45.175Z,14.53
2017-11-14T12:47:16.587Z,11.20
2017-11-14T12:49:47.437Z,9.20
2017-11-14T12:52:32.155Z,10.33
2017-11-14T12:55:04.772Z,10.90
2017-11-14T12:57:36.394Z,10.87
2017-11-14T13:00:10.893Z,13.70
2017-11-14T13:02:42.999Z,12.83
2017-11-14T13:05:14.178Z,8.47
2017-11-14T13:07:46.607Z,6.17
2017-11-14T13:10:18.278Z,7.27
2017-11-14T13:12:48.911Z,8.87
2017-11-14T13:15:19.964Z,7.97
2017-11-14T13:17:51.557Z,11.07
2017-11-14T13:20:22.144Z,11.27
2017-11-14T13:22:54.559Z,9.97
2017-11-14T13:25:25.604Z,10.83
2017-11-14T13:27:56.312Z,16.60
2017-11-14T13:30:29.433Z,8.43
2017-11-14T13:33:00.630Z,8.40
2017-11-14T13:35:31.069Z,11.00
2017-11-14T13:38:02.093Z,10.10
2017-11-14T13:40:34.305Z,11.77
2017-11-14T13:43:05.249Z,9.80
2017-11-14T13:45:35.589Z,9.27
2017-11-14T13:48:08.093Z,15.47
2017-11-14T13:50:38.966Z,20.67
2017-11-14T13:53:10.632Z,17.27
2017-11-14T13:55:40.888Z,9.40
2017-11-14T13:58:11.112Z,7.23
2017-11-14T14:00:42.862Z,10.10
2017-11-14T14:03:15.399Z,11.07
2017-11-14T14:05:47.041Z,9.93
2017-11-14T14:08:17.819Z,11.40
2017-11-14T14:10:49.787Z,11.13
2017-11-14T14:13:20.422Z,9.90
2017-11-14T14:15:52.356Z,12.63
2017-11-14T14:18:22.820Z,10.23
2017-11-14T14:20:54.309Z,10.03
2017-11-14T14:23:25.763Z,7.50
2017-11-14T14:25:57.126Z,14.80
2017-11-14T14:28:30.790Z,9.63
2017-11-14T14:31:02.581Z,11.00
2017-11-14T14:33:33.879Z,8.33
2017-11-14T14:36:04.771Z,13.80
2017-11-14T14:38:35.881Z,11.57
2017-11-14T14:41:07.095Z,8.70
2017-11-14T14:43:40.598Z,8.77
2017-11-14T14:46:11.859Z,12.27
2017-11-14T14:48:44.002Z,7.97
2017-11-14T14:51:14.666Z,11.77
2017-11-14T14:53:47.160Z,8.93
2017-11-14T14:56:25.740Z,10.47
2017-11-14T14:58:57.550Z,10.63
2017-11-14T15:01:28.908Z,17.20
2017-11-14T15:04:00.272Z,14.40
2017-11-14T15:06:31.582Z,15.43
2017-11-14T15:09:03.099Z,18.53
2017-11-14T15:11:34.872Z,16.43
2017-11-14T15:14:05.503Z,14.17
2017-11-14T15:16:36.595Z,14.77
2017-11-14T15:19:07.715Z,18.10
2017-11-14T15:21:38.525Z,12.43
2017-11-14T15:24:08.982Z,16.40
2017-11-14T15:26:39.767Z,15.90
2017-11-14T15:29:11.121Z,35.63
2017-11-14T15:31:41.860Z,19.50
2017-11-14T15:34:13.150Z,18.63
2017-11-14T15:36:43.732Z,16.80
2017-11-14T15:39:15.153Z,18.40
2017-11-14T15:41:45.947Z,15.80
2017-11-14T15:44:16.426Z,16.07
2017-11-14T15:46:46.979Z,17.10
2017-11-14T15:49:18.948Z,20.87
2017-11-14T15:51:49.593Z,20.23
2017-11-14T15:54:21.216Z,17.23
2017-11-14T15:56:52.530Z,16.23
2017-11-14T15:59:22.989Z,19.40
2017-11-14T16:01:53.637Z,20.87
2017-11-14T16:04:25.624Z,16.43
2017-11-14T16:06:57.360Z,16.73
2017-11-14T16:09:28.571Z,20.23
2017-11-14T16:11:59.885Z,21.10
2017-11-14T16:14:30.967Z,16.37
2017-11-14T16:17:02.202Z,24.87
2017-11-14T16:19:32.727Z,18.20
2017-11-14T16:22:03.673Z,26.60
2017-11-14T16:24:34.584Z,15.80
2017-11-14T16:27:07.593Z,17.07
2017-11-14T16:29:38.039Z,18.53
2017-11-14T16:32:09.804Z,24.83
2017-11-14T16:34:42.344Z,23.03
2017-11-14T16:37:13.525Z,23.30
2017-11-14T16:39:44.901Z,23.80
2017-11-14T16:42:15.505Z,23.33
2017-11-14T16:44:47.186Z,21.30
2017-11-14T16:47:18.008Z,19.43
2017-11-14T16:49:49.318Z,30.03
2017-11-14T16:52:20.731Z,29.70
2017-11-14T16:54:51.348Z,25.87
2017-11-14T16:57:22.815Z,21.73
2017-11-14T17:00:04.082Z,22.13
2017-11-14T17:02:36.139Z,30.53
2017-11-14T17:05:08.204Z,28.43
2017-11-14T17:07:39.731Z,28.30
2017-11-14T17:10:10.683Z,29.70
2017-11-14T17:12:41.431Z,21.30
2017-11-14T17:15:11.989Z,26.60
2017-11-14T17:17:42.986Z,28.90
2017-11-14T17:20:13.720Z,27.70
2017-11-14T17:22:44.426Z,28.40
2017-11-14T17:25:15.591Z,26.60
2017-11-14T17:27:47.166Z,24.27
2017-11-14T17:30:18.536Z,22.97
2017-11-14T17:32:49.595Z,29.87
2017-11-14T17:35:20.031Z,26.80
2017-11-14T17:37:50.815Z,23.07
2017-11-14T17:40:21.746Z,28.50
2017-11-14T17:42:52.514Z,24.30
2017-11-14T17:45:23.519Z,28.50
2017-11-14T17:47:54.730Z,25.67
2017-11-14T17:50:25.218Z,32.67
2017-11-14T17:52:57.054Z,31.50
2017-11-14T17:55:29.861Z,32.13
2017-11-14T17:58:01.027Z,37.50
2017-11-14T18:00:31.837Z,37.20
2017-11-14T18:03:04.050Z,33.70
2017-11-14T18:05:34.867Z,38.83
2017-11-14T18:08:06.984Z,35.40
2017-11-14T18:10:39.228Z,30.67
2017-11-14T18:13:10.112Z,29.20
2017-11-14T18:15:47.267Z,38.23
2017-11-14T18:18:19.320Z,32.30
2017-11-14T18:20:50.516Z,35.90
2017-11-14T18:23:21.831Z,36.80
2017-11-14T18:25:52.562Z,36.10
2017-11-14T18:28:24.478Z,34.60
2017-11-14T18:30:55.769Z,30.27
2017-11-14T18:33:27.448Z,36.03
2017-11-14T18:35:58.234Z,31.67
2017-11-14T18:38:30.391Z,43.03
2017-11-14T18:41:01.863Z,37.90
2017-11-14T18:43:33.210Z,37.30
2017-11-14T18:46:04.265Z,34.80
2017-11-14T18:48:35.351Z,29.10
2017-11-14T18:51:08.260Z,42.23
2017-11-14T18:53:39.716Z,32.47
2017-11-14T18:56:10.909Z,33.47
2017-11-14T18:58:42.343Z,32.37
2017-11-14T19:01:13.364Z,30.67
2017-11-14T19:03:51.690Z,33.93
2017-11-14T19:06:23.425Z,37.00
2017-11-14T19:08:54.815Z,44.33
2017-11-14T19:11:26.335Z,34.83
2017-11-14T19:13:57.203Z,42.10
2017-11-14T19:16:27.820Z,48.33
2017-11-14T19:18:58.226Z,44.60
2017-11-14T19:21:28.765Z,39.13
2017-11-14T19:23:59.887Z,46.83
2017-11-14T19:26:30.706Z,41.90
2017-11-14T19:29:02.391Z,38.00
2017-11-14T19:31:34.243Z,40.50
2017-11-14T19:34:05.601Z,43.53
2017-11-14T19:36:37.971Z,43.23
2017-11-14T19:39:10.148Z,30.63
2017-11-14T19:41:42.314Z,43.07
2017-11-14T19:44:14.150Z,44.60
2017-11-14T19:46:46.414Z,49.27
2017-11-14T19:49:17.793Z,55.67
2017-11-14T19:51:52.256Z,39.10
2017-11-14T19:54:25.142Z,41.50
2017-11-14T19:56:58.066Z,38.23
2017-11-14T19:59:29.566Z,39.40
2017-11-14T20:02:01.306Z,41.93
2017-11-14T20:04:35.775Z,43.53
2017-11-14T20:07:07.149Z,35.03
2017-11-14T20:09:39.132Z,45.80
2017-11-14T20:12:11.562Z,40.20
2017-11-14T20:14:43.239Z,44.90
2017-11-14T20:17:14.229Z,37.40
2017-11-14T20:19:44.812Z,45.20
2017-11-14T20:22:17.345Z,39.23
2017-11-14T20:24:48.399Z,40.50
2017-11-14T20:27:21.430Z,37.47
2017-11-14T20:29:52.563Z,37.47
2017-11-14T20:32:24.022Z,39.40
2017-11-14T20:34:55.042Z,48.10
2017-11-14T20:37:31.296Z,43.57
2017-11-14T20:40:01.707Z,45.17
2017-11-14T20:42:34.782Z,42.53
2017-11-14T20:45:05.747Z,42.43
2017-11-14T20:47:36.686Z,41.13
2017-11-14T20:50:07.621Z,45.33
2017-11-14T20:52:38.391Z,41.60
2017-11-14T20:55:09.002Z,37.30
2017-11-14T20:57:41.093Z,39.53
2017-11-14T21:00:11.804Z,35.83
2017-11-14T21:02:42.942Z,35.53
2017-11-14T21:05:19.602Z,35.30
2017-11-14T21:07:55.151Z,40.73
2017-11-14T21:10:26.744Z,34.33
2017-11-14T21:12:57.840Z,34.63
2017-11-14T21:15:28.199Z,31.07
2017-11-14T21:17:59.261Z,35.10
2017-11-14T21:20:30.138Z,36.17
2017-11-14T21:23:01.099Z,36.17
2017-11-14T21:25:33.653Z,37.97
2017-11-14T21:28:04.548Z,37.37
2017-11-14T21:30:35.168Z,40.13
2017-11-14T21:33:05.594Z,30.23
2017-11-14T21:35:35.983Z,33.83
2017-11-14T21:38:06.919Z,35.47
2017-11-14T21:40:37.320Z,36.57
2017-11-14T21:43:08.991Z,43.60
2017-11-14T21:45:40.729Z,44.90
2017-11-14T21:48:13.377Z,40.07
2017-11-14T21:50:44.287Z,32.57
2017-11-14T21:53:15.082Z,46.30
2017-11-14T21:55:45.640Z,43.03
2017-11-14T21:58:16.888Z,35.80
2017-11-14T22:01:05.127Z,41.13
2017-11-14T22:03:37.625Z,42.07
2017-11-14T22:06:08.445Z,39.37
2017-11-14T22:08:44.080Z,38.07
2017-11-14T22:11:16.887Z,35.70
2017-11-14T22:13:47.075Z,43.77
2017-11-14T22:16:19.065Z,37.10
2017-11-14T22:18:50.050Z,36.97
2017-11-14T22:21:20.704Z,44.93
2017-11-14T22:26:29.264Z,41.17
2017-11-14T22:28:59.759Z,34.87
2017-11-14T22:31:30.630Z,42.93
2017-11-14T22:34:02.071Z,41.80
2017-11-14T22:36:33.627Z,35.27
2017-11-14T22:39:03.907Z,36.13
2017-11-14T22:41:34.890Z,36.77
2017-11-14T22:44:07.160Z,37.10
2017-11-14T22:46:37.779Z,41.90
2017-11-14T22:49:08.424Z,40.23
2017-11-14T22:51:39.158Z,34.43
2017-11-14T22:54:10.501Z,39.07
2017-11-14T22:56:40.773Z,36.67
2017-11-14T22:59:15.503Z,36.67
2017-11-14T23:01:46.256Z,36.03
2017-11-14T23:04:17.591Z,37.77
2017-11-14T23:06:48.377Z,35.00
2017-11-14T23:09:19.111Z,45.07
2017-11-14T23:11:58.243Z,37.80
2017-11-14T23:14:29.682Z,37.57
2017-11-14T23:17:01.033Z,38.17
2017-11-14T23:19:32.567Z,35.70
2017-11-14T23:22:04.123Z,39.23
2017-11-14T23:24:34.897Z,33.57
2017-11-14T23:27:05.400Z,40.30
2017-11-14T23:29:37.797Z,34.50
2017-11-14T23:32:08.507Z,36.00
2017-11-14T23:34:38.566Z,33.10
2017-11-14T23:37:08.644Z,44.17
2017-11-14T23:39:38.959Z,48.03
2017-11-14T23:42:09.288Z,53.57
2017-11-14T23:44:40.333Z,49.03
2017-11-14T23:47:15.445Z,45.93
2017-11-14T23:49:45.991Z,45.30
2017-11-14T23:52:17.158Z,60.17
2017-11-14T23:54:47.337Z,46.20
2017-11-14T23:57:18.036Z,45.47
2017-11-14T23:59:48.724Z,59.40
